createdAt,value
2018-09-01T00:01:33.031Z,2.40
2018-09-01T00:04:02.318Z,2.27
2018-09-01T00:06:31.440Z,2.20
2018-09-01T00:09:00.801Z,2.73
2018-09-01T00:11:30.064Z,2.70
2018-09-01T00:13:59.202Z,1.90
2018-09-01T00:16:28.512Z,2.33
2018-09-01T00:18:57.631Z,2.67
2018-09-01T00:21:27.304Z,2.10
2018-09-01T00:23:56.501Z,2.10
2018-09-01T00:26:26.255Z,2.33
2018-09-01T00:28:55.284Z,2.27
2018-09-01T00:31:24.384Z,2.03
2018-09-01T00:33:53.553Z,2.00
2018-09-01T00:36:22.629Z,2.40
2018-09-01T00:38:56.984Z,2.50
2018-09-01T00:41:26.516Z,2.47
2018-09-01T00:43:56.099Z,2.83
2018-09-01T00:46:26.693Z,2.10
2018-09-01T00:48:55.762Z,2.30
2018-09-01T00:51:25.145Z,2.37
2018-09-01T00:53:54.300Z,2.33
2018-09-01T00:56:23.812Z,2.50
2018-09-01T01:11:17.662Z,2.90
2018-09-01T01:13:47.395Z,2.90
2018-09-01T01:31:15.828Z,5.65
2018-09-01T03:47:35.932Z,4.50
2018-09-01T04:02:27.597Z,4.90
2018-09-01T04:07:25.964Z,6.65
2018-09-01T04:09:55.466Z,5.15
2018-09-01T06:16:10.475Z,5.23
2018-09-01T06:18:39.496Z,5.50
2018-09-01T06:21:08.601Z,4.93
2018-09-01T06:23:37.688Z,5.00
2018-09-01T06:43:30.346Z,4.83
2018-09-01T06:45:59.812Z,5.40
2018-09-01T06:48:29.342Z,4.63
2018-09-01T06:50:58.677Z,4.20
2018-09-01T06:53:28.508Z,4.70
2018-09-01T06:55:57.901Z,4.90
2018-09-01T06:58:27.947Z,4.57
2018-09-01T07:00:57.448Z,4.53
2018-09-01T07:03:26.717Z,4.40
2018-09-01T07:05:56.185Z,5.07
2018-09-01T07:08:25.624Z,4.47
2018-09-01T07:10:54.969Z,5.10
2018-09-01T07:13:24.339Z,5.60
2018-09-01T07:15:53.904Z,4.07
2018-09-01T07:18:23.435Z,5.00
2018-09-01T07:20:52.877Z,4.37
2018-09-01T07:23:22.604Z,4.73
2018-09-01T07:25:52.556Z,4.70
2018-09-01T07:28:21.747Z,4.70
2018-09-01T07:30:51.371Z,4.50
2018-09-01T07:33:20.448Z,4.67
2018-09-01T07:35:49.654Z,5.17
2018-09-01T07:38:18.856Z,4.50
2018-09-01T07:40:48.117Z,3.70
2018-09-01T07:43:17.238Z,4.57
2018-09-01T07:45:47.739Z,4.00
2018-09-01T07:48:17.018Z,4.67
2018-09-01T07:50:46.478Z,3.90
2018-09-01T07:53:15.760Z,4.03
2018-09-01T07:55:47.401Z,3.50
2018-09-01T07:58:17.329Z,3.40
2018-09-01T08:00:47.437Z,2.93
2018-09-01T08:03:16.885Z,3.10
2018-09-01T08:05:46.681Z,3.50
2018-09-01T08:08:16.284Z,3.80
2018-09-01T08:10:45.935Z,3.27
2018-09-01T08:13:15.845Z,3.33
2018-09-01T08:15:45.779Z,3.13
2018-09-01T08:18:14.996Z,3.43
2018-09-01T08:20:44.853Z,4.07
2018-09-01T08:23:14.222Z,3.30
2018-09-01T08:25:43.791Z,3.10
2018-09-01T08:28:13.293Z,3.50
2018-09-01T08:30:42.465Z,3.57
2018-09-01T08:33:12.215Z,3.80
2018-09-01T08:35:41.403Z,2.57
2018-09-01T08:51:10.165Z,2.63
2018-09-01T08:53:39.976Z,2.10
2018-09-01T08:56:09.785Z,1.77
2018-09-01T08:58:39.391Z,2.30
2018-09-01T09:01:08.708Z,2.40
2018-09-01T09:03:38.132Z,1.80
2018-09-01T09:06:07.704Z,1.80
2018-09-01T09:08:37.007Z,1.53
2018-09-01T09:11:07.604Z,1.50
2018-09-01T09:13:37.527Z,1.50
2018-09-01T09:16:06.746Z,2.00
2018-09-01T09:18:35.876Z,1.90
2018-09-01T09:21:05.068Z,1.40
2018-09-01T09:23:34.133Z,1.90
2018-09-01T09:26:03.253Z,1.90
2018-09-01T09:28:32.309Z,1.70
2018-09-01T09:31:01.757Z,1.60
2018-09-01T09:33:30.919Z,1.60
2018-09-01T09:36:00.290Z,1.63
2018-09-01T09:38:29.464Z,1.47
2018-09-01T09:40:58.547Z,2.07
2018-09-01T09:43:27.753Z,2.63
2018-09-01T09:45:57.030Z,1.63
2018-09-01T09:48:26.244Z,1.77
2018-09-01T09:50:55.604Z,2.33
2018-09-01T09:53:25.079Z,2.10
2018-09-01T09:55:54.452Z,1.80
2018-09-01T09:58:23.837Z,2.10
2018-09-01T10:00:57.669Z,2.03
2018-09-01T10:03:27.581Z,1.63
2018-09-01T10:05:58.104Z,1.40
2018-09-01T10:08:27.334Z,1.70
2018-09-01T10:10:57.598Z,1.60
2018-09-01T10:13:26.952Z,1.57
2018-09-01T10:15:56.200Z,1.60
2018-09-01T10:18:25.292Z,1.50
2018-09-01T10:20:54.600Z,1.30
2018-09-01T10:23:23.756Z,1.60
2018-09-01T10:25:53.726Z,1.37
2018-09-01T10:28:22.861Z,1.63
2018-09-01T10:30:52.016Z,1.93
2018-09-01T10:33:21.456Z,1.30
2018-09-01T10:35:51.197Z,1.70
2018-09-01T10:38:20.435Z,1.50
2018-09-01T10:40:49.761Z,1.80
2018-09-01T10:43:19.249Z,1.30
2018-09-01T10:45:49.044Z,1.57
2018-09-01T10:48:18.304Z,1.10
2018-09-01T10:50:47.548Z,1.20
2018-09-01T10:53:16.842Z,1.13
2018-09-01T10:55:46.448Z,1.80
2018-09-01T10:58:15.735Z,1.50
2018-09-01T11:00:45.328Z,1.73
2018-09-01T11:03:14.499Z,1.17
2018-09-01T11:05:43.998Z,1.37
2018-09-01T11:08:13.833Z,1.53
2018-09-01T11:10:42.961Z,1.57
2018-09-01T11:13:12.114Z,1.30
2018-09-01T11:15:41.509Z,1.30
2018-09-01T11:18:11.627Z,1.20
2018-09-01T11:20:41.067Z,1.20
2018-09-01T11:23:10.170Z,1.50
2018-09-01T11:25:39.415Z,1.43
2018-09-01T11:28:08.859Z,1.57
2018-09-01T11:30:37.979Z,1.77
2018-09-01T11:33:07.616Z,1.40
2018-09-01T11:35:37.640Z,1.90
2018-09-01T11:38:06.702Z,1.50
2018-09-01T11:40:35.934Z,1.20
2018-09-01T11:43:05.670Z,1.40
2018-09-01T11:45:34.779Z,1.67
2018-09-01T11:48:04.610Z,1.50
2018-09-01T11:50:33.944Z,1.47
2018-09-01T11:53:03.679Z,1.63
2018-09-01T11:55:33.355Z,1.87
2018-09-01T11:58:03.072Z,1.70
2018-09-01T12:00:33.839Z,1.20
2018-09-01T12:03:03.654Z,1.50
2018-09-01T12:05:33.133Z,1.40
2018-09-01T12:08:02.804Z,1.20
2018-09-01T12:10:32.180Z,1.30
2018-09-01T12:13:01.396Z,1.73
2018-09-01T12:15:30.567Z,1.20
2018-09-01T12:17:59.945Z,1.47
2018-09-01T12:20:29.483Z,1.63
2018-09-01T12:22:59.023Z,1.20
2018-09-01T12:25:28.316Z,2.00
2018-09-01T12:27:58.709Z,1.50
2018-09-01T12:30:27.819Z,1.60
2018-09-01T12:32:56.894Z,1.23
2018-09-01T12:35:26.208Z,1.60
2018-09-01T12:37:55.231Z,1.73
2018-09-01T12:40:24.342Z,1.73
2018-09-01T12:42:53.486Z,1.70
2018-09-01T12:45:22.921Z,1.50
2018-09-01T12:47:52.084Z,1.63
2018-09-01T12:50:21.615Z,1.40
2018-09-01T12:52:50.708Z,1.43
2018-09-01T12:55:19.808Z,1.30
2018-09-01T12:57:49.132Z,1.33
2018-09-01T13:00:18.280Z,2.03
2018-09-01T13:02:47.547Z,1.30
2018-09-01T13:05:16.671Z,1.83
2018-09-01T13:07:45.999Z,1.60
2018-09-01T13:10:15.127Z,1.57
2018-09-01T13:12:44.327Z,1.47
2018-09-01T13:15:13.597Z,1.43
2018-09-01T13:17:42.672Z,1.87
2018-09-01T13:20:11.761Z,1.53
2018-09-01T13:22:40.872Z,1.50
2018-09-01T13:25:10.052Z,2.13
2018-09-01T13:27:39.134Z,1.60
2018-09-01T13:30:08.559Z,1.63
2018-09-01T13:32:37.835Z,2.03
2018-09-01T13:35:06.960Z,1.83
2018-09-01T13:37:36.313Z,2.13
2018-09-01T13:40:06.004Z,2.00
2018-09-01T13:42:35.240Z,3.40
2018-09-01T13:45:04.618Z,1.80
2018-09-01T13:47:33.737Z,1.80
2018-09-01T13:50:03.131Z,1.47
2018-09-01T13:52:32.541Z,1.80
2018-09-01T13:55:01.738Z,1.80
2018-09-01T13:57:31.133Z,1.50
2018-09-01T14:00:00.438Z,1.47
2018-09-01T14:02:29.739Z,1.43
2018-09-01T14:04:58.856Z,1.60
2018-09-01T14:07:28.168Z,1.50
2018-09-01T14:09:57.438Z,2.53
2018-09-01T14:12:26.672Z,1.70
2018-09-01T14:14:55.957Z,2.00
2018-09-01T14:17:25.552Z,1.97
2018-09-01T14:19:54.752Z,1.40
2018-09-01T14:22:23.964Z,1.90
2018-09-01T14:24:53.141Z,1.70
2018-09-01T14:27:22.809Z,1.93
2018-09-01T14:29:51.888Z,1.93
2018-09-01T14:32:21.094Z,1.93
2018-09-01T14:34:50.277Z,1.97
2018-09-01T14:37:20.050Z,1.90
2018-09-01T14:39:49.270Z,1.63
2018-09-01T14:42:18.466Z,1.60
2018-09-01T14:44:47.677Z,1.90
2018-09-01T14:47:16.929Z,1.97
2018-09-01T14:49:46.481Z,1.97
2018-09-01T14:52:17.039Z,1.83
2018-09-01T14:54:46.167Z,2.03
2018-09-01T14:57:15.336Z,1.80
2018-09-01T14:59:44.633Z,1.53
2018-09-01T15:02:13.948Z,1.90
2018-09-01T15:04:43.063Z,1.70
2018-09-01T15:07:12.417Z,2.20
2018-09-01T15:09:41.561Z,1.70
2018-09-01T15:12:10.860Z,1.70
2018-09-01T15:14:40.280Z,2.80
2018-09-01T15:17:09.328Z,2.00
2018-09-01T15:19:38.375Z,2.20
2018-09-01T15:22:07.876Z,2.17
2018-09-01T15:24:37.058Z,2.07
2018-09-01T15:27:06.153Z,1.30
2018-09-01T15:29:35.196Z,1.97
2018-09-01T15:32:04.310Z,1.60
2018-09-01T15:34:33.608Z,2.00
2018-09-01T15:37:02.740Z,1.70
2018-09-01T15:39:31.772Z,2.00
2018-09-01T15:42:00.857Z,1.50
2018-09-01T15:44:30.059Z,2.23
2018-09-01T15:46:59.593Z,1.60
2018-09-01T15:49:28.680Z,1.53
2018-09-01T15:51:57.755Z,2.93
2018-09-01T15:54:27.199Z,1.80
2018-09-01T15:56:57.203Z,1.97
2018-09-01T15:59:26.364Z,1.73
2018-09-01T16:01:55.421Z,1.90
2018-09-01T16:04:24.600Z,1.80
2018-09-01T16:06:53.819Z,1.80
2018-09-01T16:09:23.354Z,2.50
2018-09-01T16:11:52.507Z,1.80
2018-09-01T16:14:21.605Z,3.27
2018-09-01T16:16:50.800Z,2.83
2018-09-01T16:19:19.963Z,2.97
2018-09-01T16:21:49.352Z,2.20
2018-09-01T16:24:18.699Z,1.87
2018-09-01T16:26:47.948Z,2.00
2018-09-01T16:29:17.143Z,1.97
2018-09-01T16:31:46.515Z,1.97
2018-09-01T16:34:15.743Z,2.10
2018-09-01T16:36:45.728Z,2.17
2018-09-01T16:39:15.027Z,1.80
2018-09-01T16:41:44.249Z,2.27
2018-09-01T16:44:13.532Z,1.87
2018-09-01T16:46:42.598Z,1.70
2018-09-01T16:49:11.756Z,1.40
2018-09-01T16:51:41.206Z,2.03
2018-09-01T16:54:10.532Z,1.70
2018-09-01T16:56:44.198Z,1.80
2018-09-01T16:59:14.399Z,2.10
2018-09-01T17:01:44.168Z,1.70
2018-09-01T17:04:13.609Z,1.70
2018-09-01T17:06:42.931Z,2.00
2018-09-01T17:09:12.348Z,1.70
2018-09-01T17:11:41.848Z,1.83
2018-09-01T17:14:11.426Z,1.93
2018-09-01T17:16:40.651Z,2.07
2018-09-01T17:19:10.137Z,1.70
2018-09-01T17:21:39.391Z,1.83
2018-09-01T17:24:08.958Z,2.27
2018-09-01T17:26:38.759Z,1.90
2018-09-01T17:29:07.967Z,2.03
2018-09-01T17:31:37.027Z,1.97
2018-09-01T17:34:06.059Z,1.70
2018-09-01T17:36:35.340Z,2.00
2018-09-01T17:39:06.493Z,2.23
2018-09-01T17:41:35.589Z,2.17
2018-09-01T17:44:05.067Z,1.70
2018-09-01T17:46:34.237Z,2.37
2018-09-01T17:49:03.508Z,2.03
2018-09-01T17:51:32.684Z,1.70
2018-09-01T17:54:02.187Z,2.40
2018-09-01T17:56:31.562Z,1.90
2018-09-01T17:59:00.622Z,2.27
2018-09-01T18:01:30.773Z,1.97
2018-09-01T18:04:00.060Z,1.70
2018-09-01T18:06:29.174Z,1.80
2018-09-01T18:08:58.273Z,2.10
2018-09-01T18:11:27.444Z,2.10
2018-09-01T18:13:56.584Z,1.70
2018-09-01T18:16:25.829Z,2.07
2018-09-01T18:18:55.014Z,1.80
2018-09-01T18:21:24.440Z,2.00
2018-09-01T18:23:53.560Z,2.00
2018-09-01T18:26:22.687Z,2.30
2018-09-01T18:28:52.036Z,2.40
2018-09-01T18:31:21.092Z,2.40
2018-09-01T18:33:50.207Z,2.20
2018-09-01T18:36:19.736Z,2.80
2018-09-01T18:38:48.833Z,2.30
2018-09-01T18:41:17.934Z,2.67
2018-09-01T18:43:48.916Z,3.63
2018-09-01T18:46:18.537Z,3.70
2018-09-01T18:48:48.164Z,3.10
2018-09-01T18:51:18.199Z,2.73
2018-09-01T18:53:47.990Z,2.33
2018-09-01T18:56:18.504Z,2.43
2018-09-01T18:58:48.712Z,2.60
2018-09-01T19:01:18.346Z,2.33
2018-09-01T19:03:47.785Z,2.80
2018-09-01T19:06:17.288Z,1.90
2018-09-01T19:08:46.757Z,2.40
2018-09-01T19:11:16.125Z,2.80
2018-09-01T19:13:45.643Z,3.53
2018-09-01T19:16:15.331Z,2.53
2018-09-01T19:18:44.818Z,2.67
2018-09-01T19:21:14.199Z,3.40
2018-09-01T19:23:44.489Z,2.80
2018-09-01T19:26:14.197Z,2.63
2018-09-01T19:28:43.635Z,2.80
2018-09-01T19:31:13.153Z,2.30
2018-09-01T19:41:08.445Z,2.67
2018-09-01T19:48:34.661Z,3.20
2018-09-01T19:58:31.287Z,2.90
2018-09-01T20:03:29.374Z,3.10
2018-09-01T20:05:58.814Z,2.57
2018-09-01T20:08:28.041Z,3.20
2018-09-01T20:10:57.202Z,2.80
2018-09-01T20:13:26.954Z,2.80
2018-09-01T20:15:56.143Z,2.60
2018-09-01T20:23:23.525Z,3.10
2018-09-01T20:25:53.038Z,2.40
2018-09-01T20:38:21.985Z,3.00
2018-09-01T20:40:51.232Z,3.10
2018-09-01T20:43:20.771Z,3.03
2018-09-01T20:45:50.196Z,3.23
2018-09-01T20:48:19.823Z,3.07
2018-09-01T20:50:49.004Z,3.30
2018-09-01T20:53:18.456Z,3.20
2018-09-01T20:55:47.914Z,4.17
2018-09-01T20:58:17.604Z,3.45
2018-09-01T21:00:47.143Z,3.63
2018-09-01T21:03:16.816Z,3.57
2018-09-01T21:05:46.435Z,3.50
2018-09-01T21:08:15.828Z,3.13
2018-09-01T21:10:45.239Z,3.17
2018-09-01T21:13:14.775Z,3.30
2018-09-01T21:15:44.168Z,3.57
2018-09-01T21:18:13.590Z,3.07
2018-09-01T21:20:42.835Z,3.30
2018-09-01T21:23:12.192Z,4.30
2018-09-01T21:25:41.491Z,3.20
2018-09-01T21:28:11.104Z,3.70
2018-09-01T21:30:40.496Z,3.23
2018-09-01T21:33:09.700Z,3.50
2018-09-01T21:35:38.805Z,3.47
2018-09-01T21:38:08.317Z,3.30
2018-09-01T21:40:37.575Z,3.00
2018-09-01T21:43:06.768Z,3.60
2018-09-01T21:45:35.892Z,3.80
2018-09-01T22:12:49.302Z,3.90
2018-09-01T22:15:18.480Z,3.73
2018-09-01T22:17:47.888Z,3.53
2018-09-01T22:25:14.856Z,4.27
2018-09-01T22:27:44.293Z,4.43
2018-09-01T22:30:14.016Z,3.80
2018-09-01T22:32:43.731Z,4.77
2018-09-01T22:35:13.333Z,4.30
2018-09-01T22:37:42.606Z,4.33
2018-09-01T22:40:11.905Z,3.90
2018-09-01T22:42:41.456Z,3.67
2018-09-01T22:45:10.846Z,4.20
2018-09-01T22:47:40.675Z,4.83
2018-09-01T22:50:10.179Z,5.50
2018-09-01T22:52:39.465Z,4.30
2018-09-01T22:55:08.611Z,3.93
2018-09-01T22:57:37.921Z,4.17
2018-09-01T23:00:07.892Z,5.20
2018-09-01T23:02:36.964Z,4.70
2018-09-01T23:05:06.111Z,4.40
2018-09-01T23:07:35.224Z,4.40
2018-09-01T23:10:04.403Z,4.23
2018-09-01T23:12:33.661Z,4.40
2018-09-01T23:15:02.800Z,4.33
2018-09-01T23:17:32.748Z,5.10
2018-09-01T23:20:02.193Z,4.37
2018-09-01T23:22:31.271Z,5.00
2018-09-01T23:25:00.362Z,4.40
2018-09-01T23:27:29.473Z,5.87
2018-09-01T23:29:59.375Z,5.00
2018-09-01T23:32:28.544Z,5.43
2018-09-01T23:34:57.668Z,4.53
2018-09-01T23:37:26.858Z,4.50
2018-09-01T23:39:55.982Z,4.63
2018-09-01T23:42:25.032Z,4.97
2018-09-01T23:44:54.281Z,4.90
2018-09-01T23:47:23.771Z,4.63
2018-09-01T23:49:52.952Z,4.90
2018-09-01T23:52:22.088Z,5.20
2018-09-01T23:54:51.428Z,4.60
2018-09-01T23:57:20.460Z,5.37
2018-09-01T23:59:49.828Z,5.17
